»·PEaware :: SCX720 KIFP-KSBA

SCX720 :: KIFP-KSBA

FLIGHT INFORMATION

Flight Status: Arrived
Operator:
Sun Country Airlines
More flights by this operator :: More flights under this callsign
Pilot: Shawn N. (11060)
Aircraft: BOEING 737-800
(B738)
More flights by this aircraft type
Origin: KIFP Laughlin/Bullhead Intl
United States
Destination: KSBA Santa Barbara Mun
United States
More flights between these airports :: More routes between these airports
Route: +ENITE HEC PITBL1
File this flight plan on PilotEdge
Remarks:
Altitude:
(Current/Filed)
32,000ft
Speed:
(Current/Filed)
450kts
Departed: 19-Jun-18 10:41 AM
Arrived: 19-Jun-18 11:37 AM
Distance/Time
Traveled:
264nm/0:56
Distance/Time
To Go:
Arrived

Flight Plot

Page will automatically refresh every two minutes.

Flight plan parsing failed; only flown route is shown


Map Options




Map Legend


Flown Route
Filed Route
Departure Airport
Arrival Airport
Navaid (VOR, NDB)
Fix

Horizontal Profiles

Position Reports

Time Latitude Longitude Heading Altitude Ground
Speed
19-Jun-18 10:27 35.164316 -114.556279 86 702ft 0kts
19-Jun-18 10:28 35.164316 -114.556279 86 702ft 0kts
19-Jun-18 10:29 35.164316 -114.556279 86 702ft 0kts
19-Jun-18 10:30 35.164316 -114.556279 86 702ft 0kts
19-Jun-18 10:31 35.164316 -114.556279 86 702ft 0kts
19-Jun-18 10:32 35.164316 -114.556279 86 702ft 0kts
19-Jun-18 10:33 35.164316 -114.556279 86 702ft 0kts
19-Jun-18 10:34 35.164223 -114.556693 41 702ft 2kts
19-Jun-18 10:35 35.163958 -114.556787 356 702ft 0kts
19-Jun-18 10:36 35.163967 -114.556787 356 702ft 0kts
19-Jun-18 10:37 35.164605 -114.556828 356 702ft 0kts
19-Jun-18 10:38 35.164620 -114.556830 356 702ft 0kts
19-Jun-18 10:39 35.164649 -114.556832 356 702ft 1kts
19-Jun-18 10:40 35.165673 -114.558786 358 702ft 11kts
19-Jun-18 10:41 35.161013 -114.559831 177 702ft 97kts
19-Jun-18 10:42 35.114846 -114.556451 182 1658ft 202kts
19-Jun-18 10:43 35.051159 -114.551628 173 4177ft 270kts
19-Jun-18 10:44 34.974372 -114.534612 168 6982ft 294kts
19-Jun-18 10:45 34.897080 -114.510972 158 8328ft 299kts
19-Jun-18 10:46 34.827196 -114.490667 179 10808ft 327kts
19-Jun-18 10:47 34.774413 -114.565689 265 14313ft 320kts
19-Jun-18 10:48 34.772473 -114.672948 273 17959ft 329kts
19-Jun-18 10:49 34.774312 -114.787302 273 21176ft 342kts
19-Jun-18 10:50 34.776473 -114.905535 272 23606ft 360kts
19-Jun-18 10:51 34.778684 -115.027175 272 26294ft 366kts
19-Jun-18 10:52 34.780903 -115.152255 272 28493ft 377kts
19-Jun-18 10:53 34.783083 -115.280012 272 30735ft 379kts
19-Jun-18 10:54 34.785155 -115.407451 272 31953ft 374kts
19-Jun-18 10:55 34.787045 -115.530191 272 31958ft 372kts
19-Jun-18 10:56 34.788709 -115.644211 272 32085ft 373kts
19-Jun-18 10:57 34.790091 -115.749632 271 32092ft 371kts
19-Jun-18 10:58 34.791669 -115.877312 271 32100ft 392kts
19-Jun-18 10:59 34.793237 -116.014515 271 32093ft 416kts
19-Jun-18 11:00 34.794691 -116.154958 271 32089ft 414kts
19-Jun-18 11:01 34.796007 -116.294918 271 32034ft 415kts
19-Jun-18 11:02 34.797175 -116.435365 271 32032ft 415kts
19-Jun-18 11:03 34.782156 -116.574602 261 32030ft 417kts
19-Jun-18 11:04 34.764215 -116.693017 260 32039ft 417kts
19-Jun-18 11:05 34.744420 -116.823835 260 32039ft 422kts
19-Jun-18 11:06 34.723221 -116.963553 260 32037ft 421kts
19-Jun-18 11:07 34.702254 -117.101108 260 32095ft 421kts
19-Jun-18 11:08 34.680877 -117.240786 260 32107ft 421kts
19-Jun-18 11:09 34.659354 -117.380477 260 32107ft 421kts
19-Jun-18 11:10 34.637739 -117.519715 260 32105ft 421kts
19-Jun-18 11:11 34.616373 -117.656338 259 32077ft 420kts
19-Jun-18 11:12 34.596738 -117.780409 259 32084ft 421kts
19-Jun-18 11:13 34.574766 -117.918423 259 31617ft 430kts
19-Jun-18 11:14 34.553913 -118.048498 259 29091ft 390kts
19-Jun-18 11:15 34.533102 -118.177552 259 26727ft 386kts
19-Jun-18 11:16 34.513198 -118.300254 259 24514ft 374kts
19-Jun-18 11:17 34.493973 -118.418147 259 23063ft 357kts
19-Jun-18 11:18 34.474343 -118.538417 259 23060ft 367kts
19-Jun-18 11:19 34.455412 -118.653575 258 23197ft 368kts
19-Jun-18 11:20 34.437849 -118.759442 259 21882ft 376kts
19-Jun-18 11:21 34.418927 -118.870762 259 18438ft 359kts
19-Jun-18 11:22 34.399794 -118.981800 260 15908ft 335kts
19-Jun-18 11:23 34.384119 -119.091059 273 13737ft 329kts
19-Jun-18 11:24 34.390464 -119.200237 275 11670ft 323kts
19-Jun-18 11:25 34.371429 -119.300127 252 10109ft 293kts
19-Jun-18 11:26 34.346205 -119.386935 252 8915ft 279kts
19-Jun-18 11:27 34.318169 -119.474805 250 8998ft 284kts
19-Jun-18 11:28 34.290504 -119.559731 250 8703ft 248kts
19-Jun-18 11:29 34.266049 -119.635197 250 7414ft 232kts
19-Jun-18 11:30 34.244139 -119.704462 250 6240ft 223kts
19-Jun-18 11:31 34.266998 -119.757512 10 4643ft 235kts
19-Jun-18 11:32 34.322335 -119.724836 12 3405ft 210kts
19-Jun-18 11:33 34.373580 -119.728508 340 2337ft 168kts
19-Jun-18 11:34 34.408177 -119.757327 312 1163ft 143kts
19-Jun-18 11:35 34.428798 -119.795440 273 598ft 137kts
19-Jun-18 11:36 34.427797 -119.840034 266 21ft 126kts
19-Jun-18 11:37 34.426600 -119.851720 137 21ft 4kts
19-Jun-18 11:38 34.426527 -119.846580 87 21ft 30kts
19-Jun-18 11:39 34.425868 -119.838126 165 21ft 14kts
19-Jun-18 11:40 34.425143 -119.837294 114 21ft 0kts
19-Jun-18 11:41 34.425143 -119.837294 114 21ft 0kts
19-Jun-18 11:42 34.425143 -119.837294 114 21ft 0kts
19-Jun-18 11:43 34.425143 -119.837294 114 21ft 0kts
19-Jun-18 11:44 34.425143 -119.837294 114 21ft 0kts

Navigation Log

Ident Type
Flight plan parsing failed, navigation log unavailable